West Covina, California
Current Conditions -  °F | °C
As of 7:47 PM on Monday 20 Oct 2014 (Local Time) from KEMT Reporting Station
Clear Clear  
Wind Chill: 68°   Ceiling: Unl
Heat Index: 68°   Visibility: 10mi
Dew Point: 59°   Wind: 3mph
Humidity: 73%   Direction: 210°SSW
Pressure: 29.91"   Gusts: NA
Location:  34.07°N, 117.93°W
Report Text: KEMT 210247Z 21003KT 10SM CLR 20/15 A2991 RMK LAST
Loading
Personal Weather Stations






























Interactive Weather Map
Tropical Storm Tracking
New forecast layout! Learn more

10-Day Weather Forecast

Advertisements
Track Severe Weather on mobile